createdAt,value
2023-04-18T00:01:44.546Z,10.96
2023-04-18T00:04:13.732Z,10.95
2023-04-18T00:06:40.778Z,10.91
2023-04-18T00:09:07.435Z,10.93
2023-04-18T00:11:34.947Z,10.93
2023-04-18T00:14:03.284Z,10.91
2023-04-18T00:16:30.016Z,10.92
2023-04-18T00:18:57.222Z,10.82
2023-04-18T00:21:25.470Z,10.79
2023-04-18T00:23:52.080Z,10.85
2023-04-18T00:26:18.682Z,10.83
2023-04-18T00:28:45.432Z,10.85
2023-04-18T00:31:12.019Z,10.90
2023-04-18T00:33:38.598Z,10.95
2023-04-18T00:36:05.708Z,11.02
2023-04-18T00:38:32.272Z,11.04
2023-04-18T00:40:58.877Z,11.02
2023-04-18T00:43:25.631Z,10.98
2023-04-18T00:45:52.453Z,10.93
2023-04-18T00:48:19.061Z,10.84
2023-04-18T00:50:46.004Z,10.83
2023-04-18T00:53:13.509Z,10.80
2023-04-18T00:55:41.263Z,10.80
2023-04-18T00:58:08.442Z,10.78
2023-04-18T01:00:35.507Z,10.77
2023-04-18T01:03:02.245Z,10.76
2023-04-18T01:05:29.124Z,10.79
2023-04-18T01:08:00.925Z,10.79
2023-04-18T01:10:29.070Z,10.80
2023-04-18T01:13:16.605Z,10.82
2023-04-18T01:15:44.975Z,10.83
2023-04-18T01:18:13.344Z,10.83
2023-04-18T01:20:43.811Z,10.87
2023-04-18T01:23:10.592Z,10.87
2023-04-18T01:25:37.417Z,10.83
2023-04-18T01:28:04.668Z,10.80
2023-04-18T01:30:31.273Z,10.75
2023-04-18T01:32:57.902Z,10.76
2023-04-18T01:35:24.539Z,10.73
2023-04-18T01:37:51.376Z,10.74
2023-04-18T01:40:18.126Z,10.82
2023-04-18T01:42:44.806Z,10.88
2023-04-18T01:45:12.888Z,10.88
2023-04-18T01:47:39.760Z,10.91
2023-04-18T01:50:06.912Z,10.97
2023-04-18T01:52:33.828Z,10.98
2023-04-18T01:55:02.183Z,10.97
2023-04-18T01:57:28.997Z,10.95
2023-04-18T01:59:55.579Z,10.95
2023-04-18T02:02:22.427Z,10.97
2023-04-18T02:04:49.134Z,11.03
2023-04-18T02:07:15.748Z,11.07
2023-04-18T02:09:42.372Z,11.08
2023-04-18T02:12:09.146Z,11.06
2023-04-18T02:14:36.421Z,11.12
2023-04-18T02:17:03.097Z,11.16
2023-04-18T02:19:30.382Z,11.19
2023-04-18T02:21:56.994Z,11.21
2023-04-18T02:24:23.605Z,11.22
2023-04-18T02:26:50.200Z,11.32
2023-04-18T02:29:17.030Z,11.36
2023-04-18T02:31:43.616Z,11.39
2023-04-18T02:34:10.296Z,11.44
2023-04-18T02:36:36.928Z,11.45
2023-04-18T02:39:03.656Z,11.50
2023-04-18T02:41:30.231Z,11.51
2023-04-18T02:43:57.052Z,11.53
2023-04-18T02:46:25.009Z,11.57
2023-04-18T02:48:51.662Z,11.58
2023-04-18T02:51:19.966Z,11.57
2023-04-18T02:53:46.818Z,11.57
2023-04-18T02:56:17.137Z,11.56
2023-04-18T02:58:43.735Z,11.54
2023-04-18T03:01:10.621Z,11.52
2023-04-18T03:03:37.267Z,11.46
2023-04-18T03:06:04.105Z,11.39
2023-04-18T03:08:30.745Z,11.31
2023-04-18T03:10:57.367Z,11.25
2023-04-18T03:13:25.163Z,11.19
2023-04-18T03:15:51.892Z,11.12
2023-04-18T03:18:18.442Z,11.05
2023-04-18T03:20:45.167Z,11.02
2023-04-18T03:23:11.747Z,11.00
2023-04-18T03:25:38.452Z,10.93
2023-04-18T03:28:05.210Z,10.97
2023-04-18T03:30:32.516Z,11.04
2023-04-18T03:32:59.660Z,11.05
2023-04-18T03:35:26.297Z,11.07
2023-04-18T03:37:52.863Z,11.11
2023-04-18T03:40:19.540Z,11.12
2023-04-18T03:42:46.101Z,11.08
2023-04-18T03:45:12.764Z,11.02
2023-04-18T03:47:39.410Z,10.96
2023-04-18T03:50:06.460Z,10.95
2023-04-18T03:52:33.258Z,10.93
2023-04-18T03:54:59.874Z,10.88
2023-04-18T03:57:26.528Z,10.81
2023-04-18T03:59:53.163Z,10.72
2023-04-18T04:02:19.978Z,10.64
2023-04-18T04:04:47.069Z,10.56
2023-04-18T04:07:13.845Z,10.49
2023-04-18T04:09:40.432Z,10.43
2023-04-18T04:12:07.010Z,10.45
2023-04-18T04:14:33.585Z,10.47
2023-04-18T04:17:00.233Z,10.59
2023-04-18T04:19:26.772Z,10.65
2023-04-18T04:21:53.456Z,10.69
2023-04-18T04:24:22.629Z,10.73
2023-04-18T04:26:50.726Z,10.76
2023-04-18T04:29:17.778Z,10.79
2023-04-18T04:31:44.592Z,10.83
2023-04-18T04:34:11.274Z,10.87
2023-04-18T04:36:38.006Z,10.83
2023-04-18T04:39:05.313Z,10.85
2023-04-18T04:41:31.898Z,10.86
2023-04-18T04:43:59.685Z,10.88
2023-04-18T04:46:29.402Z,10.94
2023-04-18T04:48:56.558Z,10.99
2023-04-18T04:51:23.308Z,11.06
2023-04-18T04:53:49.921Z,11.11
2023-04-18T04:56:16.590Z,11.18
2023-04-18T04:58:43.235Z,11.26
2023-04-18T05:01:09.863Z,11.34
2023-04-18T05:03:36.666Z,11.41
2023-04-18T05:06:03.654Z,11.51
2023-04-18T05:08:30.442Z,11.60
2023-04-18T05:10:57.050Z,11.63
2023-04-18T05:13:23.650Z,11.80
2023-04-18T05:15:50.313Z,11.95
2023-04-18T05:18:16.917Z,12.08
2023-04-18T05:20:43.505Z,12.23
2023-04-18T05:23:10.293Z,12.37
2023-04-18T05:25:37.010Z,12.55
2023-04-18T05:28:08.333Z,12.82
2023-04-18T05:30:34.916Z,13.01
2023-04-18T05:33:01.543Z,13.27
2023-04-18T05:35:28.230Z,13.66
2023-04-18T05:37:54.808Z,14.02
2023-04-18T05:40:21.429Z,14.12
2023-04-18T05:42:48.209Z,14.18
2023-04-18T05:45:14.850Z,14.43
2023-04-18T05:47:41.537Z,14.89
2023-04-18T05:50:08.844Z,15.40
2023-04-18T05:52:37.034Z,16.23
2023-04-18T05:55:03.725Z,16.69
2023-04-18T05:57:30.993Z,17.17
2023-04-18T05:59:57.689Z,18.10
2023-04-18T06:02:24.413Z,18.86
2023-04-18T06:04:51.717Z,19.03
2023-04-18T06:07:18.540Z,18.88
2023-04-18T06:09:45.759Z,19.11
2023-04-18T06:12:12.353Z,19.86
2023-04-18T06:14:38.986Z,20.10
2023-04-18T06:17:07.267Z,20.48
2023-04-18T06:19:33.832Z,20.95
2023-04-18T06:22:01.387Z,21.31
2023-04-18T06:24:29.615Z,21.33
2023-04-18T06:26:57.561Z,21.35
2023-04-18T06:29:24.643Z,20.58
2023-04-18T06:31:52.137Z,20.49
2023-04-18T06:34:18.832Z,20.56
2023-04-18T06:36:45.544Z,21.02
2023-04-18T06:39:12.570Z,21.55
2023-04-18T06:41:39.132Z,21.76
2023-04-18T06:44:05.777Z,21.63
2023-04-18T06:46:33.139Z,22.00
2023-04-18T06:49:00.122Z,22.45
2023-04-18T06:51:27.449Z,22.60
2023-04-18T06:53:57.029Z,22.25
2023-04-18T06:56:23.689Z,22.09
2023-04-18T06:58:53.218Z,22.31
2023-04-18T07:01:20.122Z,23.00
2023-04-18T07:03:46.752Z,23.42
2023-04-18T07:06:13.459Z,23.93
2023-04-18T07:08:40.038Z,23.92
2023-04-18T07:11:06.856Z,24.41
2023-04-18T07:13:33.548Z,24.36
2023-04-18T07:16:01.366Z,24.64
2023-04-18T07:18:37.360Z,25.10
2023-04-18T07:21:07.838Z,25.10
2023-04-18T07:23:35.008Z,25.61
2023-04-18T07:26:02.889Z,25.96
2023-04-18T07:28:29.755Z,26.28
2023-04-18T07:30:57.061Z,26.02
2023-04-18T07:33:24.735Z,25.69
2023-04-18T07:35:52.819Z,25.00
2023-04-18T07:38:19.460Z,24.51
2023-04-18T07:40:46.059Z,24.54
2023-04-18T07:43:12.610Z,24.34
2023-04-18T07:45:39.301Z,24.71
2023-04-18T07:48:06.516Z,24.58
2023-04-18T07:50:33.108Z,24.58
2023-04-18T07:52:59.695Z,24.89
2023-04-18T07:55:26.311Z,25.73
2023-04-18T07:57:52.895Z,25.70
2023-04-18T08:00:19.746Z,23.82
2023-04-18T08:02:46.495Z,24.24
2023-04-18T08:05:13.489Z,24.71
2023-04-18T08:07:40.638Z,24.31
2023-04-18T08:10:07.707Z,25.99
2023-04-18T08:12:36.269Z,25.32
2023-04-18T08:15:03.714Z,25.72
2023-04-18T08:17:31.130Z,24.59
2023-04-18T08:19:57.823Z,26.45
2023-04-18T08:22:24.473Z,26.25
2023-04-18T08:25:03.821Z,25.02
2023-04-18T08:27:31.483Z,25.86
2023-04-18T08:29:58.317Z,25.73
2023-04-18T08:32:24.954Z,25.73
2023-04-18T08:34:51.581Z,26.92
2023-04-18T08:37:18.293Z,28.05
2023-04-18T08:39:45.114Z,27.99
2023-04-18T08:42:16.393Z,28.68
2023-04-18T08:44:43.329Z,29.22
2023-04-18T08:47:09.984Z,29.51
2023-04-18T08:49:36.590Z,28.79
2023-04-18T08:52:10.130Z,29.11
2023-04-18T08:54:38.678Z,28.60
2023-04-18T08:57:06.792Z,29.28
2023-04-18T08:59:35.614Z,27.20
2023-04-18T09:02:04.334Z,28.97
2023-04-18T09:04:45.399Z,29.12
2023-04-18T09:07:13.965Z,29.48
2023-04-18T09:09:51.696Z,29.73
2023-04-18T09:12:23.110Z,29.10
2023-04-18T09:14:51.583Z,28.66
2023-04-18T09:17:34.542Z,28.86
2023-04-18T09:20:06.240Z,29.01
2023-04-18T09:22:53.202Z,27.59
2023-04-18T09:25:39.743Z,27.45
2023-04-18T09:28:33.526Z,25.55
2023-04-18T09:31:15.448Z,25.10
2023-04-18T09:33:54.114Z,25.92
2023-04-18T09:36:27.428Z,26.26
2023-04-18T09:38:56.868Z,26.84
2023-04-18T09:41:24.318Z,26.82
2023-04-18T09:44:09.710Z,24.38
2023-04-18T09:46:38.278Z,24.28
2023-04-18T09:49:04.879Z,23.90
2023-04-18T09:51:33.343Z,24.46
2023-04-18T09:54:00.684Z,24.44
2023-04-18T09:56:29.705Z,24.00
2023-04-18T09:59:03.114Z,24.62
2023-04-18T10:01:29.859Z,25.54
2023-04-18T10:03:57.634Z,26.90
2023-04-18T10:06:27.452Z,27.64
2023-04-18T10:08:54.678Z,28.24
2023-04-18T10:11:22.057Z,28.18
2023-04-18T10:13:50.525Z,28.70
2023-04-18T10:16:18.248Z,24.27
2023-04-18T10:18:44.932Z,24.16
2023-04-18T10:21:11.604Z,24.63
2023-04-18T10:23:39.698Z,24.02
2023-04-18T10:26:10.741Z,24.25
2023-04-18T10:28:57.333Z,25.89
2023-04-18T10:31:28.542Z,26.20
2023-04-18T10:36:28.317Z,24.29
2023-04-18T10:39:20.049Z,24.19
2023-04-18T10:41:51.009Z,25.06
2023-04-18T10:44:23.006Z,25.29
2023-04-18T10:46:53.135Z,25.58
2023-04-18T10:49:26.410Z,23.92
2023-04-18T10:51:56.206Z,23.63
2023-04-18T10:54:28.940Z,24.37
2023-04-18T10:56:57.734Z,24.48
2023-04-18T10:59:26.700Z,24.94
2023-04-18T11:02:01.321Z,25.16
2023-04-18T11:04:28.507Z,24.71
2023-04-18T11:06:57.491Z,24.51
2023-04-18T11:09:24.583Z,24.41
2023-04-18T11:12:04.685Z,24.55
2023-04-18T11:14:44.944Z,24.42
2023-04-18T11:17:18.867Z,23.58
2023-04-18T11:19:46.123Z,24.03
2023-04-18T11:22:13.785Z,23.24
2023-04-18T11:24:40.468Z,23.93
2023-04-18T11:27:09.987Z,23.65
2023-04-18T11:29:36.974Z,24.12
2023-04-18T11:32:07.618Z,23.80
2023-04-18T11:34:35.641Z,22.88
2023-04-18T11:37:07.596Z,23.87
2023-04-18T11:39:43.770Z,23.84
2023-04-18T11:42:10.585Z,23.91
2023-04-18T11:44:39.852Z,23.71
2023-04-18T11:47:31.682Z,23.04
2023-04-18T11:50:03.917Z,23.21
2023-04-18T11:52:32.324Z,23.45
2023-04-18T11:55:19.619Z,23.45
2023-04-18T11:57:52.125Z,22.95
2023-04-18T12:00:22.000Z,22.98
2023-04-18T12:02:51.266Z,23.09
2023-04-18T12:05:36.997Z,23.09
2023-04-18T12:08:11.861Z,22.37
2023-04-18T12:10:46.310Z,22.83
2023-04-18T12:13:13.216Z,23.14
2023-04-18T12:15:42.306Z,23.22
2023-04-18T12:18:10.807Z,22.97
2023-04-18T12:20:38.842Z,23.36
2023-04-18T12:23:05.988Z,23.16
2023-04-18T12:25:32.881Z,22.67
2023-04-18T12:28:04.671Z,22.90
2023-04-18T12:30:36.031Z,22.40
2023-04-18T12:33:04.905Z,23.09
2023-04-18T12:35:32.436Z,22.95
2023-04-18T12:38:00.730Z,22.72
2023-04-18T12:40:30.071Z,22.54
2023-04-18T12:42:56.686Z,22.60
2023-04-18T12:45:23.774Z,22.52
2023-04-18T12:47:52.190Z,22.61
2023-04-18T12:50:21.228Z,22.29
2023-04-18T12:52:48.614Z,22.04
2023-04-18T12:55:15.798Z,22.26
2023-04-18T12:57:43.371Z,22.29
2023-04-18T13:00:11.296Z,22.34
2023-04-18T13:02:39.766Z,22.25
2023-04-18T13:05:10.933Z,22.00
2023-04-18T13:07:40.497Z,21.62
2023-04-18T13:10:12.009Z,21.43
2023-04-18T13:12:41.724Z,21.52
2023-04-18T13:15:09.767Z,21.52
2023-04-18T13:17:37.704Z,21.25
2023-04-18T13:20:10.696Z,21.06
2023-04-18T13:22:38.166Z,20.99
2023-04-18T13:25:05.829Z,21.11
2023-04-18T13:27:32.491Z,20.86
2023-04-18T13:29:59.245Z,20.98
2023-04-18T13:32:26.483Z,20.86
2023-04-18T13:34:53.223Z,20.98
2023-04-18T13:37:19.882Z,21.20
2023-04-18T13:39:46.599Z,21.53
2023-04-18T13:42:15.941Z,21.53
2023-04-18T13:44:42.896Z,21.17
2023-04-18T13:47:09.552Z,21.36
2023-04-18T13:49:36.527Z,21.44
2023-04-18T13:52:03.495Z,21.68
2023-04-18T13:54:31.962Z,21.73
2023-04-18T13:57:04.098Z,21.48
2023-04-18T13:59:31.910Z,22.14
2023-04-18T14:01:59.062Z,21.53
2023-04-18T14:04:27.039Z,21.94
2023-04-18T14:06:53.794Z,22.13
2023-04-18T14:09:20.539Z,21.92
2023-04-18T14:11:47.298Z,22.16
2023-04-18T14:14:14.079Z,22.50
2023-04-18T14:16:40.766Z,21.94
2023-04-18T14:19:07.644Z,21.98
2023-04-18T14:21:34.274Z,21.87
2023-04-18T14:24:00.934Z,22.02
2023-04-18T14:26:29.368Z,21.96
2023-04-18T14:28:56.542Z,22.04
2023-04-18T14:31:23.264Z,22.28
2023-04-18T14:33:49.916Z,22.28
2023-04-18T14:36:17.416Z,22.23
2023-04-18T14:38:48.486Z,21.96
2023-04-18T14:41:15.315Z,22.29
2023-04-18T14:43:41.942Z,21.87
2023-04-18T14:46:13.201Z,22.08
2023-04-18T14:48:39.973Z,21.96
2023-04-18T14:51:07.104Z,22.31
2023-04-18T14:53:34.121Z,22.42
2023-04-18T14:56:00.697Z,22.40
2023-04-18T14:58:27.283Z,22.02
2023-04-18T15:00:53.916Z,22.11
2023-04-18T15:03:20.802Z,22.18
2023-04-18T15:05:49.025Z,22.11
2023-04-18T15:08:16.301Z,22.20
2023-04-18T15:10:43.313Z,22.16
2023-04-18T15:13:11.142Z,22.18
2023-04-18T15:15:39.699Z,21.90
2023-04-18T15:18:06.943Z,22.03
2023-04-18T15:20:34.489Z,22.06
2023-04-18T15:23:01.728Z,21.94
2023-04-18T15:25:30.356Z,21.84
2023-04-18T15:27:58.260Z,21.54
2023-04-18T15:30:25.245Z,21.63
2023-04-18T15:32:52.234Z,21.56
2023-04-18T15:35:18.954Z,21.64
2023-04-18T15:37:45.748Z,21.72
2023-04-18T15:40:16.199Z,21.52
2023-04-18T15:42:43.741Z,21.37
2023-04-18T15:45:11.152Z,21.31
2023-04-18T15:47:38.851Z,21.26
2023-04-18T15:50:06.222Z,21.36
2023-04-18T15:52:32.912Z,21.23
2023-04-18T15:55:00.415Z,21.18
2023-04-18T15:57:29.300Z,21.24
2023-04-18T15:59:56.712Z,21.33
2023-04-18T16:02:23.338Z,21.22
2023-04-18T16:04:50.201Z,21.16
2023-04-18T16:07:16.926Z,21.09
2023-04-18T16:09:43.582Z,21.08
2023-04-18T16:12:10.252Z,21.10
2023-04-18T16:14:36.911Z,21.16
2023-04-18T16:17:03.748Z,21.06
2023-04-18T16:19:30.497Z,21.03
2023-04-18T16:21:57.529Z,21.10
2023-04-18T16:24:25.709Z,20.95
2023-04-18T16:26:53.652Z,20.96
2023-04-18T16:29:20.425Z,20.92
2023-04-18T16:31:47.838Z,20.86
2023-04-18T16:34:15.829Z,20.76
2023-04-18T16:36:42.791Z,20.72
2023-04-18T16:39:09.472Z,20.75
2023-04-18T16:41:36.118Z,20.60
2023-04-18T16:44:02.712Z,20.70
2023-04-18T16:46:32.279Z,20.73
2023-04-18T16:48:59.255Z,20.65
2023-04-18T16:51:26.468Z,20.57
2023-04-18T16:53:53.105Z,20.51
2023-04-18T16:56:19.685Z,20.51
2023-04-18T16:58:47.517Z,20.51
2023-04-18T17:01:14.225Z,20.53
2023-04-18T17:03:41.092Z,20.43
2023-04-18T17:06:07.784Z,20.48
2023-04-18T17:08:34.485Z,20.39
2023-04-18T17:11:02.309Z,20.30
2023-04-18T17:13:31.438Z,20.21
2023-04-18T17:15:58.213Z,20.22
2023-04-18T17:18:25.117Z,20.13
2023-04-18T17:20:52.518Z,20.07
2023-04-18T17:23:19.283Z,20.05
2023-04-18T17:25:46.297Z,19.98
2023-04-18T17:28:13.865Z,19.92
2023-04-18T17:30:44.260Z,19.82
2023-04-18T17:33:11.161Z,19.82
2023-04-18T17:35:41.401Z,19.73
2023-04-18T17:38:08.559Z,19.68
2023-04-18T17:40:35.334Z,19.59
2023-04-18T17:43:01.928Z,19.46
2023-04-18T17:45:28.512Z,19.40
2023-04-18T17:47:57.504Z,19.36
2023-04-18T17:50:24.198Z,19.30
2023-04-18T17:52:50.775Z,19.23
2023-04-18T17:55:17.376Z,19.17
2023-04-18T17:57:43.932Z,19.08
2023-04-18T18:00:11.970Z,19.04
2023-04-18T18:02:38.835Z,18.98
2023-04-18T18:05:06.085Z,18.93
2023-04-18T18:07:37.112Z,18.82
2023-04-18T18:10:04.940Z,18.75
2023-04-18T18:12:32.312Z,18.70
2023-04-18T18:14:59.108Z,18.62
2023-04-18T18:17:25.874Z,18.60
2023-04-18T18:19:52.557Z,18.49
2023-04-18T18:22:21.274Z,18.45
2023-04-18T18:24:47.778Z,18.42
2023-04-18T18:27:14.771Z,18.32
2023-04-18T18:29:41.390Z,18.31
2023-04-18T18:32:08.111Z,18.25
2023-04-18T18:34:34.854Z,18.23
2023-04-18T18:37:01.517Z,18.16
2023-04-18T18:39:28.114Z,18.15
2023-04-18T18:41:54.771Z,18.12
2023-04-18T18:44:21.483Z,18.08
2023-04-18T18:46:48.106Z,18.02
2023-04-18T18:49:15.037Z,17.93
2023-04-18T18:51:41.740Z,17.82
2023-04-18T18:54:08.393Z,17.67
2023-04-18T18:56:34.981Z,17.50
2023-04-18T18:59:01.609Z,17.38
2023-04-18T19:01:30.222Z,17.30
2023-04-18T19:03:56.985Z,17.22
2023-04-18T19:06:23.684Z,17.19
2023-04-18T19:08:50.331Z,17.12
2023-04-18T19:11:18.299Z,17.03
2023-04-18T19:13:45.152Z,17.02
2023-04-18T19:16:12.950Z,16.98
2023-04-18T19:18:53.055Z,16.96
2023-04-18T19:21:20.407Z,16.94
2023-04-18T19:23:47.047Z,16.89
2023-04-18T19:26:13.901Z,16.92
2023-04-18T19:29:06.109Z,16.94
2023-04-18T19:31:53.890Z,16.92
2023-04-18T19:34:22.288Z,16.90
2023-04-18T19:36:49.213Z,16.88
2023-04-18T19:39:16.581Z,16.88
2023-04-18T19:41:43.257Z,16.90
2023-04-18T19:44:09.853Z,16.84
2023-04-18T19:46:39.474Z,16.83
2023-04-18T19:49:06.279Z,16.76
2023-04-18T19:51:32.851Z,16.70
2023-04-18T19:53:59.587Z,16.66
2023-04-18T19:56:26.475Z,16.58
2023-04-18T19:58:53.326Z,16.57
2023-04-18T20:01:20.936Z,16.50
2023-04-18T20:03:48.194Z,16.47
2023-04-18T20:06:16.180Z,16.41
2023-04-18T20:08:43.188Z,16.42
2023-04-18T20:11:10.908Z,16.39
2023-04-18T20:13:38.295Z,16.31
2023-04-18T20:16:08.347Z,16.26
2023-04-18T20:18:39.439Z,16.21
2023-04-18T20:21:08.067Z,16.10
2023-04-18T20:23:35.551Z,16.09
2023-04-18T20:26:03.101Z,15.99
2023-04-18T20:28:31.255Z,15.92
2023-04-18T20:30:57.914Z,15.85
2023-04-18T20:33:24.569Z,15.78
2023-04-18T20:35:51.159Z,15.74
2023-04-18T20:38:17.750Z,15.68
2023-04-18T20:40:44.957Z,15.69
2023-04-18T20:43:13.585Z,15.64
2023-04-18T20:45:42.827Z,15.57
2023-04-18T20:48:09.778Z,15.47
2023-04-18T20:50:36.366Z,15.49
2023-04-18T20:53:04.010Z,15.50
2023-04-18T20:55:30.993Z,15.52
2023-04-18T20:57:58.667Z,15.51
2023-04-18T21:00:25.543Z,15.43
2023-04-18T21:02:52.288Z,15.41
2023-04-18T21:05:18.974Z,15.31
2023-04-18T21:07:45.927Z,15.25
2023-04-18T21:10:12.663Z,15.25
2023-04-18T21:12:39.317Z,15.19
2023-04-18T21:15:06.382Z,15.17
2023-04-18T21:17:32.995Z,15.13
2023-04-18T21:19:59.614Z,15.12
2023-04-18T21:22:26.296Z,15.08
2023-04-18T21:24:52.896Z,15.01
2023-04-18T21:27:19.530Z,14.99
2023-04-18T21:29:46.120Z,14.96
2023-04-18T21:32:12.789Z,15.00
2023-04-18T21:34:40.904Z,15.04
2023-04-18T21:37:07.558Z,15.01
2023-04-18T21:39:34.222Z,14.99
2023-04-18T21:42:01.865Z,14.94
2023-04-18T21:44:28.498Z,14.92
2023-04-18T21:46:56.585Z,14.85
2023-04-18T21:49:28.461Z,14.75
2023-04-18T21:51:56.690Z,14.67
2023-04-18T21:54:23.993Z,14.58
2023-04-18T21:56:50.583Z,14.52
2023-04-18T21:59:18.466Z,14.47
2023-04-18T22:01:45.399Z,14.35
2023-04-18T22:04:15.164Z,14.27
2023-04-18T22:06:43.876Z,14.23
2023-04-18T22:09:11.797Z,14.19
2023-04-18T22:11:38.430Z,14.18
2023-04-18T22:14:05.181Z,14.12
2023-04-18T22:16:33.403Z,14.09
2023-04-18T22:19:01.188Z,14.08
2023-04-18T22:21:27.874Z,14.09
2023-04-18T22:23:54.437Z,14.06
2023-04-18T22:26:21.041Z,14.01
2023-04-18T22:28:48.126Z,13.98
2023-04-18T22:31:14.820Z,13.93
2023-04-18T22:33:41.460Z,13.94
2023-04-18T22:36:08.256Z,13.93
2023-04-18T22:38:34.837Z,13.94
2023-04-18T22:41:01.391Z,13.94
2023-04-18T22:43:28.249Z,13.97
2023-04-18T22:45:54.977Z,14.00
2023-04-18T22:48:21.769Z,13.97
2023-04-18T22:50:49.901Z,13.99
2023-04-18T22:53:16.880Z,14.05
2023-04-18T22:55:44.583Z,14.06
2023-04-18T22:58:11.675Z,14.08
2023-04-18T23:00:38.296Z,14.14
2023-04-18T23:03:05.234Z,14.20
2023-04-18T23:05:32.145Z,14.28
2023-04-18T23:08:00.325Z,14.31
2023-04-18T23:10:27.416Z,14.33
2023-04-18T23:12:54.041Z,14.41
2023-04-18T23:15:22.798Z,14.47
2023-04-18T23:17:51.316Z,14.51
2023-04-18T23:20:17.960Z,14.58
2023-04-18T23:22:44.556Z,14.61
2023-04-18T23:25:11.123Z,14.60
2023-04-18T23:27:37.778Z,14.57
2023-04-18T23:30:04.816Z,14.52
2023-04-18T23:32:31.451Z,14.49
2023-04-18T23:34:58.239Z,14.54
2023-04-18T23:37:24.848Z,14.65
2023-04-18T23:39:51.651Z,14.68
2023-04-18T23:42:18.273Z,14.63
2023-04-18T23:44:45.119Z,14.59
2023-04-18T23:47:11.825Z,14.54
2023-04-18T23:49:38.509Z,14.49
2023-04-18T23:52:05.241Z,14.51
2023-04-18T23:54:31.803Z,14.56
2023-04-18T23:56:58.508Z,14.55
2023-04-18T23:59:25.112Z,14.50
